Terminal Aerodrome Forecast
Issued by NWS

Home | Current Version | Previous Version | Text Only | Print | Product List | Glossary Off
Versions: 1 2 3 4 5 6 7 8 9 10 11 12 13 14

000
FTUS43 KGRB 210533
TAFAUW
TAF
KAUW 210533Z 2106/2206 31012G20KT P6SM FEW008 OVC018
      TEMPO 2106/2108 6SM -RASN SCT008 BKN010
     FM211000 33011KT P6SM BKN020
     FM211500 34011KT P6SM SCT020 SCT040
     FM211700 34010KT P6SM SKC
     FM220100 01006KT P6SM SKC=

USA.gov is the U.S. government's official web portal to all federal, state and local government web resources and services.